Springport, Michigan
Current Conditions -  °F | °C
As of 4:15 PM on Saturday 22 Nov 2014 (Local Time) from KFPK Reporting Station
Haze Haze  
Wind Chill: 38°   Ceiling: 500
Heat Index: 43°   Visibility: 2mi
Dew Point: 41°   Wind: 9mph
Humidity: 94%   Direction: 200°SSW
Pressure: 29.89"   Gusts: NA
Location:  42.38°N, 84.7°W
Report Text: KFPK 222115Z AUTO 20008KT 2SM BR OVC005 06/05 A2989 RMK AO2 T00610052
Loading
Personal Weather Stations






























Interactive Weather Map New forecast layout! Learn more

10-Day Weather Forecast

Advertisements
Track Severe Weather on mobile